Terminal Aerodrome Forecast
Issued by NWS Melbourne, FL

Home | Current Version | Previous Version | Text Only | Print | Product List | Glossary On
Versions: 1 2 3 4 5 6 7 8 9 10 11 12 13 14 15 16 17 18 19 20 21 22 23 24 25 26 27 28 29 30 31 32
000
FTUS42 KMLB 300900 AAA
TAFMCO
TAF AMD
KMCO 300900Z 3009/3106 22003KT P6SM SCT008 BKN150
     FM301400 23006KT P6SM SCT020 SCT050 BKN250
     FM301800 24008KT P6SM VCTS SCT040CB BKN100 BKN250
      TEMPO 3019/3021 3SM TSRA BKN035CB
     FM310000 25005KT P6SM FEW035 BKN250=

USA.gov is the U.S. government's official web portal to all federal, state and local government web resources and services.